sensor_id;sensor_type;location;lat;lon;timestamp;P1;durP1;ratioP1;P2;durP2;ratioP2
51270;SDS011;37744;50.960;4.136;2022-11-09T00:01:29;6.32;;;2.00;;
51270;SDS011;37744;50.960;4.136;2022-11-09T00:04:53;9.52;;;2.10;;
51270;SDS011;37744;50.960;4.136;2022-11-09T00:08:20;12.73;;;2.10;;
51270;SDS011;37744;50.960;4.136;2022-11-09T00:11:44;7.35;;;1.83;;
51270;SDS011;37744;50.960;4.136;2022-11-09T00:15:08;7.43;;;1.92;;
51270;SDS011;37744;50.960;4.136;2022-11-09T00:18:34;6.93;;;2.10;;
51270;SDS011;37744;50.960;4.136;2022-11-09T00:21:58;7.20;;;1.70;;
51270;SDS011;37744;50.960;4.136;2022-11-09T00:25:22;7.82;;;1.83;;
51270;SDS011;37744;50.960;4.136;2022-11-09T00:28:46;6.68;;;2.00;;
51270;SDS011;37744;50.960;4.136;2022-11-09T00:32:10;8.02;;;1.88;;
51270;SDS011;37744;50.960;4.136;2022-11-09T00:35:36;9.23;;;2.00;;
51270;SDS011;37744;50.960;4.136;2022-11-09T00:39:00;7.10;;;1.50;;
51270;SDS011;37744;50.960;4.136;2022-11-09T00:42:25;6.78;;;1.75;;
51270;SDS011;37744;50.960;4.136;2022-11-09T00:45:49;7.32;;;2.13;;
51270;SDS011;37744;50.960;4.136;2022-11-09T00:49:13;5.90;;;1.60;;
51270;SDS011;37744;50.960;4.136;2022-11-09T00:52:37;9.67;;;1.83;;
51270;SDS011;37744;50.960;4.136;2022-11-09T00:56:02;9.00;;;1.75;;
51270;SDS011;37744;50.960;4.136;2022-11-09T00:59:27;8.88;;;1.92;;
51270;SDS011;37744;50.960;4.136;2022-11-09T01:02:50;6.80;;;1.85;;
51270;SDS011;37744;50.960;4.136;2022-11-09T01:06:16;5.60;;;2.00;;
51270;SDS011;37744;50.960;4.136;2022-11-09T01:09:40;7.65;;;2.15;;
51270;SDS011;37744;50.960;4.136;2022-11-09T01:13:09;8.60;;;1.90;;
51270;SDS011;37744;50.960;4.136;2022-11-09T01:16:33;5.93;;;1.83;;
51270;SDS011;37744;50.960;4.136;2022-11-09T01:19:57;10.30;;;2.13;;
51270;SDS011;37744;50.960;4.136;2022-11-09T01:23:21;7.60;;;1.80;;
51270;SDS011;37744;50.960;4.136;2022-11-09T01:26:45;8.93;;;1.70;;
51270;SDS011;37744;50.960;4.136;2022-11-09T01:30:09;9.00;;;1.75;;
51270;SDS011;37744;50.960;4.136;2022-11-09T01:33:40;8.55;;;1.92;;
51270;SDS011;37744;50.960;4.136;2022-11-09T01:37:04;5.28;;;2.08;;
51270;SDS011;37744;50.960;4.136;2022-11-09T01:40:30;9.82;;;1.98;;
51270;SDS011;37744;50.960;4.136;2022-11-09T01:47:52;9.30;;;1.77;;
51270;SDS011;37744;50.960;4.136;2022-11-09T01:51:18;9.40;;;2.05;;
51270;SDS011;37744;50.960;4.136;2022-11-09T01:55:11;10.00;;;1.95;;
51270;SDS011;37744;50.960;4.136;2022-11-09T01:58:52;8.18;;;1.73;;
51270;SDS011;37744;50.960;4.136;2022-11-09T02:02:20;11.45;;;1.98;;
51270;SDS011;37744;50.960;4.136;2022-11-09T02:05:49;11.38;;;2.25;;
51270;SDS011;37744;50.960;4.136;2022-11-09T02:09:22;10.43;;;1.92;;
51270;SDS011;37744;50.960;4.136;2022-11-09T02:12:49;11.30;;;1.90;;
51270;SDS011;37744;50.960;4.136;2022-11-09T02:16:19;7.85;;;1.92;;
51270;SDS011;37744;50.960;4.136;2022-11-09T02:19:43;11.45;;;2.35;;
51270;SDS011;37744;50.960;4.136;2022-11-09T02:23:14;13.52;;;2.10;;
51270;SDS011;37744;50.960;4.136;2022-11-09T02:26:40;13.55;;;2.47;;
51270;SDS011;37744;50.960;4.136;2022-11-09T02:30:07;10.50;;;2.03;;
51270;SDS011;37744;50.960;4.136;2022-11-09T02:37:23;7.50;;;1.95;;
51270;SDS011;37744;50.960;4.136;2022-11-09T02:40:48;10.23;;;1.98;;
51270;SDS011;37744;50.960;4.136;2022-11-09T02:44:33;8.25;;;2.25;;
51270;SDS011;37744;50.960;4.136;2022-11-09T02:47:59;9.77;;;2.20;;
51270;SDS011;37744;50.960;4.136;2022-11-09T02:51:23;8.75;;;1.95;;
51270;SDS011;37744;50.960;4.136;2022-11-09T02:54:47;8.15;;;2.05;;
51270;SDS011;37744;50.960;4.136;2022-11-09T02:58:10;10.82;;;2.45;;
51270;SDS011;37744;50.960;4.136;2022-11-09T03:01:34;10.35;;;2.15;;
51270;SDS011;37744;50.960;4.136;2022-11-09T03:04:58;9.68;;;2.50;;
51270;SDS011;37744;50.960;4.136;2022-11-09T03:08:22;10.73;;;2.30;;
51270;SDS011;37744;50.960;4.136;2022-11-09T03:11:46;12.30;;;2.47;;
51270;SDS011;37744;50.960;4.136;2022-11-09T03:15:10;9.43;;;2.47;;
51270;SDS011;37744;50.960;4.136;2022-11-09T03:18:34;9.45;;;2.63;;
51270;SDS011;37744;50.960;4.136;2022-11-09T03:21:58;10.85;;;2.28;;
51270;SDS011;37744;50.960;4.136;2022-11-09T03:25:23;12.15;;;2.40;;
51270;SDS011;37744;50.960;4.136;2022-11-09T03:28:47;12.95;;;2.25;;
51270;SDS011;37744;50.960;4.136;2022-11-09T03:32:10;13.03;;;2.57;;
51270;SDS011;37744;50.960;4.136;2022-11-09T03:35:36;11.93;;;2.65;;
51270;SDS011;37744;50.960;4.136;2022-11-09T03:39:00;7.60;;;2.40;;
51270;SDS011;37744;50.960;4.136;2022-11-09T03:42:24;9.47;;;2.57;;
51270;SDS011;37744;50.960;4.136;2022-11-09T03:45:48;11.67;;;2.40;;
51270;SDS011;37744;50.960;4.136;2022-11-09T03:49:12;14.50;;;2.63;;
51270;SDS011;37744;50.960;4.136;2022-11-09T03:52:37;10.77;;;2.30;;
51270;SDS011;37744;50.960;4.136;2022-11-09T03:56:00;12.20;;;2.07;;
51270;SDS011;37744;50.960;4.136;2022-11-09T03:59:24;9.65;;;2.38;;
51270;SDS011;37744;50.960;4.136;2022-11-09T04:02:49;12.75;;;2.67;;
51270;SDS011;37744;50.960;4.136;2022-11-09T04:06:13;13.43;;;2.40;;
51270;SDS011;37744;50.960;4.136;2022-11-09T04:09:37;13.70;;;2.37;;
51270;SDS011;37744;50.960;4.136;2022-11-09T04:13:01;12.83;;;2.50;;
51270;SDS011;37744;50.960;4.136;2022-11-09T04:16:25;15.02;;;2.35;;
51270;SDS011;37744;50.960;4.136;2022-11-09T04:19:49;10.10;;;2.17;;
51270;SDS011;37744;50.960;4.136;2022-11-09T04:23:13;11.50;;;2.40;;
51270;SDS011;37744;50.960;4.136;2022-11-09T04:26:36;18.90;;;3.40;;
51270;SDS011;37744;50.960;4.136;2022-11-09T04:30:00;9.83;;;2.13;;
51270;SDS011;37744;50.960;4.136;2022-11-09T04:33:26;12.77;;;3.00;;
51270;SDS011;37744;50.960;4.136;2022-11-09T04:36:50;10.48;;;2.30;;
51270;SDS011;37744;50.960;4.136;2022-11-09T04:40:25;12.35;;;2.90;;
51270;SDS011;37744;50.960;4.136;2022-11-09T04:43:49;10.68;;;2.40;;
51270;SDS011;37744;50.960;4.136;2022-11-09T04:47:13;14.20;;;2.45;;
51270;SDS011;37744;50.960;4.136;2022-11-09T04:50:37;9.82;;;2.63;;
51270;SDS011;37744;50.960;4.136;2022-11-09T04:54:01;9.98;;;2.10;;
51270;SDS011;37744;50.960;4.136;2022-11-09T04:57:26;15.77;;;3.23;;
51270;SDS011;37744;50.960;4.136;2022-11-09T05:01:05;8.70;;;2.22;;
51270;SDS011;37744;50.960;4.136;2022-11-09T05:04:30;11.35;;;2.97;;
51270;SDS011;37744;50.960;4.136;2022-11-09T05:07:54;11.03;;;2.10;;
51270;SDS011;37744;50.960;4.136;2022-11-09T05:14:42;14.65;;;3.17;;
51270;SDS011;37744;50.960;4.136;2022-11-09T05:18:06;15.93;;;2.60;;
51270;SDS011;37744;50.960;4.136;2022-11-09T05:21:30;13.68;;;2.70;;
51270;SDS011;37744;50.960;4.136;2022-11-09T05:25:13;8.60;;;2.63;;
51270;SDS011;37744;50.960;4.136;2022-11-09T05:28:38;17.13;;;2.92;;
51270;SDS011;37744;50.960;4.136;2022-11-09T05:32:01;17.95;;;2.78;;
51270;SDS011;37744;50.960;4.136;2022-11-09T05:35:25;9.90;;;2.40;;
51270;SDS011;37744;50.960;4.136;2022-11-09T05:38:51;12.98;;;2.88;;
51270;SDS011;37744;50.960;4.136;2022-11-09T05:42:15;13.43;;;2.97;;
51270;SDS011;37744;50.960;4.136;2022-11-09T05:45:40;14.65;;;3.10;;
51270;SDS011;37744;50.960;4.136;2022-11-09T05:49:04;17.90;;;3.25;;
51270;SDS011;37744;50.960;4.136;2022-11-09T05:52:29;10.48;;;2.20;;
51270;SDS011;37744;50.960;4.136;2022-11-09T05:55:53;8.80;;;2.67;;
51270;SDS011;37744;50.960;4.136;2022-11-09T05:59:18;15.43;;;2.05;;
51270;SDS011;37744;50.960;4.136;2022-11-09T06:02:43;12.65;;;2.15;;
51270;SDS011;37744;50.960;4.136;2022-11-09T06:06:09;11.25;;;2.63;;
51270;SDS011;37744;50.960;4.136;2022-11-09T06:09:33;7.30;;;1.80;;
51270;SDS011;37744;50.960;4.136;2022-11-09T06:12:57;12.00;;;2.42;;
51270;SDS011;37744;50.960;4.136;2022-11-09T06:16:21;10.20;;;2.35;;
51270;SDS011;37744;50.960;4.136;2022-11-09T06:19:45;9.80;;;2.30;;
51270;SDS011;37744;50.960;4.136;2022-11-09T06:23:09;10.77;;;2.00;;
51270;SDS011;37744;50.960;4.136;2022-11-09T06:26:33;11.30;;;2.72;;
51270;SDS011;37744;50.960;4.136;2022-11-09T06:29:57;15.20;;;2.60;;
51270;SDS011;37744;50.960;4.136;2022-11-09T06:33:21;9.98;;;2.70;;
51270;SDS011;37744;50.960;4.136;2022-11-09T06:36:45;8.20;;;2.07;;
51270;SDS011;37744;50.960;4.136;2022-11-09T06:40:09;9.68;;;2.35;;
51270;SDS011;37744;50.960;4.136;2022-11-09T06:43:34;14.20;;;2.50;;
51270;SDS011;37744;50.960;4.136;2022-11-09T06:46:58;6.72;;;2.03;;
51270;SDS011;37744;50.960;4.136;2022-11-09T06:50:23;9.98;;;2.10;;
51270;SDS011;37744;50.960;4.136;2022-11-09T06:53:47;9.85;;;2.15;;
51270;SDS011;37744;50.960;4.136;2022-11-09T06:57:11;11.57;;;2.50;;
51270;SDS011;37744;50.960;4.136;2022-11-09T07:00:37;9.98;;;2.25;;
51270;SDS011;37744;50.960;4.136;2022-11-09T07:04:01;7.90;;;2.40;;
51270;SDS011;37744;50.960;4.136;2022-11-09T07:07:25;11.85;;;2.20;;
51270;SDS011;37744;50.960;4.136;2022-11-09T07:10:49;14.95;;;3.08;;
51270;SDS011;37744;50.960;4.136;2022-11-09T07:14:13;13.70;;;2.97;;
51270;SDS011;37744;50.960;4.136;2022-11-09T07:17:37;17.83;;;2.40;;
51270;SDS011;37744;50.960;4.136;2022-11-09T07:21:02;7.63;;;2.27;;
51270;SDS011;37744;50.960;4.136;2022-11-09T07:24:26;9.48;;;2.25;;
51270;SDS011;37744;50.960;4.136;2022-11-09T07:27:51;10.77;;;2.38;;
51270;SDS011;37744;50.960;4.136;2022-11-09T07:31:15;11.60;;;2.55;;
51270;SDS011;37744;50.960;4.136;2022-11-09T07:34:39;12.00;;;2.30;;
51270;SDS011;37744;50.960;4.136;2022-11-09T07:38:03;10.83;;;2.50;;
51270;SDS011;37744;50.960;4.136;2022-11-09T07:41:27;10.63;;;2.47;;
51270;SDS011;37744;50.960;4.136;2022-11-09T07:44:51;13.07;;;2.70;;
51270;SDS011;37744;50.960;4.136;2022-11-09T07:48:15;8.73;;;2.22;;
51270;SDS011;37744;50.960;4.136;2022-11-09T07:55:03;14.18;;;2.90;;
51270;SDS011;37744;50.960;4.136;2022-11-09T08:01:52;11.20;;;2.42;;
51270;SDS011;37744;50.960;4.136;2022-11-09T08:05:16;12.35;;;2.67;;
51270;SDS011;37744;50.960;4.136;2022-11-09T08:08:40;9.43;;;2.40;;
51270;SDS011;37744;50.960;4.136;2022-11-09T08:12:04;14.13;;;2.42;;
51270;SDS011;37744;50.960;4.136;2022-11-09T08:15:34;9.55;;;2.25;;
51270;SDS011;37744;50.960;4.136;2022-11-09T08:18:58;8.50;;;1.98;;
51270;SDS011;37744;50.960;4.136;2022-11-09T08:22:22;15.05;;;2.60;;
51270;SDS011;37744;50.960;4.136;2022-11-09T08:25:48;12.10;;;2.33;;
51270;SDS011;37744;50.960;4.136;2022-11-09T08:29:11;11.38;;;2.10;;
51270;SDS011;37744;50.960;4.136;2022-11-09T08:32:40;12.77;;;1.90;;
51270;SDS011;37744;50.960;4.136;2022-11-09T08:36:09;10.65;;;2.33;;
51270;SDS011;37744;50.960;4.136;2022-11-09T08:39:33;10.90;;;2.30;;
51270;SDS011;37744;50.960;4.136;2022-11-09T08:43:01;9.55;;;2.40;;
51270;SDS011;37744;50.960;4.136;2022-11-09T08:46:25;10.25;;;1.92;;
51270;SDS011;37744;50.960;4.136;2022-11-09T08:49:49;9.87;;;2.10;;
51270;SDS011;37744;50.960;4.136;2022-11-09T08:53:17;14.80;;;2.50;;
51270;SDS011;37744;50.960;4.136;2022-11-09T08:56:42;8.20;;;2.08;;
51270;SDS011;37744;50.960;4.136;2022-11-09T09:00:06;15.10;;;2.33;;
51270;SDS011;37744;50.960;4.136;2022-11-09T09:03:31;10.77;;;2.40;;
51270;SDS011;37744;50.960;4.136;2022-11-09T09:06:55;13.02;;;2.33;;
51270;SDS011;37744;50.960;4.136;2022-11-09T09:10:18;10.67;;;2.53;;
51270;SDS011;37744;50.960;4.136;2022-11-09T09:13:42;12.90;;;2.10;;
51270;SDS011;37744;50.960;4.136;2022-11-09T09:17:06;12.53;;;2.30;;
51270;SDS011;37744;50.960;4.136;2022-11-09T09:20:31;9.40;;;1.85;;
51270;SDS011;37744;50.960;4.136;2022-11-09T09:23:55;10.13;;;2.00;;
51270;SDS011;37744;50.960;4.136;2022-11-09T09:27:18;14.43;;;2.80;;
51270;SDS011;37744;50.960;4.136;2022-11-09T09:30:42;12.77;;;2.50;;
51270;SDS011;37744;50.960;4.136;2022-11-09T09:34:06;7.83;;;1.70;;
51270;SDS011;37744;50.960;4.136;2022-11-09T09:37:30;6.97;;;1.60;;
51270;SDS011;37744;50.960;4.136;2022-11-09T09:40:58;11.77;;;2.30;;
51270;SDS011;37744;50.960;4.136;2022-11-09T09:44:32;7.95;;;1.92;;
51270;SDS011;37744;50.960;4.136;2022-11-09T09:51:34;6.07;;;1.65;;
51270;SDS011;37744;50.960;4.136;2022-11-09T09:58:53;10.35;;;2.00;;
51270;SDS011;37744;50.960;4.136;2022-11-09T10:05:57;11.50;;;2.30;;
51270;SDS011;37744;50.960;4.136;2022-11-09T10:17:05;8.20;;;1.90;;
51270;SDS011;37744;50.960;4.136;2022-11-09T10:27:57;11.00;;;2.30;;
51270;SDS011;37744;50.960;4.136;2022-11-09T10:31:24;8.07;;;1.90;;
51270;SDS011;37744;50.960;4.136;2022-11-09T10:34:55;12.00;;;2.47;;
51270;SDS011;37744;50.960;4.136;2022-11-09T10:38:57;10.48;;;2.17;;
51270;SDS011;37744;50.960;4.136;2022-11-09T10:42:49;12.65;;;2.47;;
51270;SDS011;37744;50.960;4.136;2022-11-09T10:46:16;10.23;;;2.10;;
51270;SDS011;37744;50.960;4.136;2022-11-09T10:49:41;11.38;;;2.33;;
51270;SDS011;37744;50.960;4.136;2022-11-09T10:56:44;11.52;;;2.20;;
51270;SDS011;37744;50.960;4.136;2022-11-09T11:00:35;8.18;;;2.10;;
51270;SDS011;37744;50.960;4.136;2022-11-09T11:04:12;7.57;;;2.05;;
51270;SDS011;37744;50.960;4.136;2022-11-09T11:07:43;13.23;;;2.42;;
51270;SDS011;37744;50.960;4.136;2022-11-09T11:11:16;6.90;;;1.70;;
51270;SDS011;37744;50.960;4.136;2022-11-09T11:14:44;8.95;;;2.38;;
51270;SDS011;37744;50.960;4.136;2022-11-09T11:25:33;8.68;;;1.75;;
51270;SDS011;37744;50.960;4.136;2022-11-09T11:32:56;11.57;;;2.28;;
51270;SDS011;37744;50.960;4.136;2022-11-09T11:44:21;7.18;;;1.73;;
51270;SDS011;37744;50.960;4.136;2022-11-09T11:59:34;6.63;;;1.75;;
51270;SDS011;37744;50.960;4.136;2022-11-09T12:03:11;9.52;;;1.90;;
51270;SDS011;37744;50.960;4.136;2022-11-09T12:14:44;7.38;;;1.90;;
51270;SDS011;37744;50.960;4.136;2022-11-09T12:21:58;8.00;;;1.50;;
51270;SDS011;37744;50.960;4.136;2022-11-09T12:36:25;3.63;;;1.27;;
51270;SDS011;37744;50.960;4.136;2022-11-09T12:39:53;8.63;;;1.20;;
51270;SDS011;37744;50.960;4.136;2022-11-09T12:43:21;4.68;;;1.00;;
51270;SDS011;37744;50.960;4.136;2022-11-09T12:46:58;4.25;;;1.10;;
51270;SDS011;37744;50.960;4.136;2022-11-09T12:50:29;4.28;;;1.10;;
51270;SDS011;37744;50.960;4.136;2022-11-09T12:53:53;4.82;;;1.27;;
51270;SDS011;37744;50.960;4.136;2022-11-09T12:57:28;5.10;;;1.13;;
51270;SDS011;37744;50.960;4.136;2022-11-09T13:04:21;5.07;;;1.23;;
51270;SDS011;37744;50.960;4.136;2022-11-09T13:07:53;9.63;;;1.80;;
51270;SDS011;37744;50.960;4.136;2022-11-09T13:11:38;8.25;;;1.58;;
51270;SDS011;37744;50.960;4.136;2022-11-09T13:15:20;7.88;;;1.38;;
51270;SDS011;37744;50.960;4.136;2022-11-09T13:18:48;4.55;;;1.50;;
51270;SDS011;37744;50.960;4.136;2022-11-09T13:25:55;7.97;;;1.45;;
51270;SDS011;37744;50.960;4.136;2022-11-09T13:29:21;6.60;;;1.60;;
51270;SDS011;37744;50.960;4.136;2022-11-09T13:37:31;5.28;;;1.40;;
51270;SDS011;37744;50.960;4.136;2022-11-09T13:40:43;8.20;;;2.08;;
51270;SDS011;37744;50.960;4.136;2022-11-09T13:44:21;9.82;;;1.77;;
51270;SDS011;37744;50.960;4.136;2022-11-09T13:47:49;7.50;;;1.40;;
51270;SDS011;37744;50.960;4.136;2022-11-09T13:54:59;14.13;;;2.15;;
51270;SDS011;37744;50.960;4.136;2022-11-09T13:58:36;6.05;;;1.67;;
51270;SDS011;37744;50.960;4.136;2022-11-09T14:02:37;5.50;;;2.08;;
51270;SDS011;37744;50.960;4.136;2022-11-09T14:05:56;7.65;;;1.45;;
51270;SDS011;37744;50.960;4.136;2022-11-09T14:09:31;6.97;;;1.35;;
51270;SDS011;37744;50.960;4.136;2022-11-09T14:16:48;4.57;;;1.38;;
51270;SDS011;37744;50.960;4.136;2022-11-09T14:24:15;7.63;;;1.40;;
51270;SDS011;37744;50.960;4.136;2022-11-09T14:27:51;7.38;;;1.27;;
51270;SDS011;37744;50.960;4.136;2022-11-09T14:34:49;5.57;;;1.20;;
51270;SDS011;37744;50.960;4.136;2022-11-09T14:41:46;3.97;;;0.93;;
51270;SDS011;37744;50.960;4.136;2022-11-09T14:45:16;3.45;;;1.27;;
51270;SDS011;37744;50.960;4.136;2022-11-09T14:48:55;7.68;;;1.50;;
51270;SDS011;37744;50.960;4.136;2022-11-09T14:52:20;7.00;;;1.30;;
51270;SDS011;37744;50.960;4.136;2022-11-09T14:56:01;6.45;;;1.30;;
51270;SDS011;37744;50.960;4.136;2022-11-09T14:59:30;5.22;;;1.40;;
51270;SDS011;37744;50.960;4.136;2022-11-09T15:02:57;7.97;;;1.55;;
51270;SDS011;37744;50.960;4.136;2022-11-09T15:06:33;5.88;;;1.48;;
51270;SDS011;37744;50.960;4.136;2022-11-09T15:09:59;5.32;;;1.80;;
51270;SDS011;37744;50.960;4.136;2022-11-09T15:13:29;10.48;;;1.50;;
51270;SDS011;37744;50.960;4.136;2022-11-09T15:17:37;8.50;;;1.80;;
51270;SDS011;37744;50.960;4.136;2022-11-09T15:20:43;9.18;;;1.58;;
51270;SDS011;37744;50.960;4.136;2022-11-09T15:31:56;5.88;;;1.50;;
51270;SDS011;37744;50.960;4.136;2022-11-09T15:35:20;9.02;;;1.50;;
51270;SDS011;37744;50.960;4.136;2022-11-09T15:38:55;6.47;;;1.70;;
51270;SDS011;37744;50.960;4.136;2022-11-09T15:42:21;8.63;;;1.77;;
51270;SDS011;37744;50.960;4.136;2022-11-09T15:45:45;10.15;;;1.67;;
51270;SDS011;37744;50.960;4.136;2022-11-09T15:52:47;10.18;;;1.90;;
51270;SDS011;37744;50.960;4.136;2022-11-09T15:56:21;10.98;;;1.85;;
51270;SDS011;37744;50.960;4.136;2022-11-09T15:59:46;5.85;;;1.25;;
51270;SDS011;37744;50.960;4.136;2022-11-09T16:03:10;5.53;;;1.45;;
51270;SDS011;37744;50.960;4.136;2022-11-09T16:06:34;10.20;;;1.75;;
51270;SDS011;37744;50.960;4.136;2022-11-09T16:09:58;3.67;;;1.40;;
51270;SDS011;37744;50.960;4.136;2022-11-09T16:13:26;6.13;;;1.67;;
51270;SDS011;37744;50.960;4.136;2022-11-09T16:16:54;10.50;;;1.80;;
51270;SDS011;37744;50.960;4.136;2022-11-09T16:20:18;8.20;;;2.08;;
51270;SDS011;37744;50.960;4.136;2022-11-09T16:27:07;9.50;;;2.28;;
51270;SDS011;37744;50.960;4.136;2022-11-09T16:30:31;11.68;;;2.40;;
51270;SDS011;37744;50.960;4.136;2022-11-09T16:33:55;17.03;;;2.50;;
51270;SDS011;37744;50.960;4.136;2022-11-09T16:37:19;8.32;;;2.05;;
51270;SDS011;37744;50.960;4.136;2022-11-09T16:40:44;8.02;;;2.80;;
51270;SDS011;37744;50.960;4.136;2022-11-09T16:44:11;6.15;;;2.20;;
51270;SDS011;37744;50.960;4.136;2022-11-09T16:47:58;10.40;;;2.53;;
51270;SDS011;37744;50.960;4.136;2022-11-09T16:51:24;4.45;;;1.88;;
51270;SDS011;37744;50.960;4.136;2022-11-09T16:54:48;6.67;;;2.00;;
51270;SDS011;37744;50.960;4.136;2022-11-09T16:58:12;12.33;;;2.50;;
51270;SDS011;37744;50.960;4.136;2022-11-09T17:01:36;10.20;;;2.50;;
51270;SDS011;37744;50.960;4.136;2022-11-09T17:05:00;11.50;;;2.67;;
51270;SDS011;37744;50.960;4.136;2022-11-09T17:08:25;10.05;;;1.88;;
51270;SDS011;37744;50.960;4.136;2022-11-09T17:11:49;8.93;;;1.97;;
51270;SDS011;37744;50.960;4.136;2022-11-09T17:15:13;13.93;;;2.10;;
51270;SDS011;37744;50.960;4.136;2022-11-09T17:18:37;9.80;;;2.22;;
51270;SDS011;37744;50.960;4.136;2022-11-09T17:22:01;6.95;;;2.13;;
51270;SDS011;37744;50.960;4.136;2022-11-09T17:25:26;7.73;;;2.33;;
51270;SDS011;37744;50.960;4.136;2022-11-09T17:28:50;8.43;;;1.80;;
51270;SDS011;37744;50.960;4.136;2022-11-09T17:32:15;9.32;;;2.20;;
51270;SDS011;37744;50.960;4.136;2022-11-09T17:35:39;5.53;;;1.87;;
51270;SDS011;37744;50.960;4.136;2022-11-09T17:39:03;9.10;;;2.17;;
51270;SDS011;37744;50.960;4.136;2022-11-09T17:42:27;7.45;;;2.10;;
51270;SDS011;37744;50.960;4.136;2022-11-09T17:45:53;11.45;;;2.45;;
51270;SDS011;37744;50.960;4.136;2022-11-09T17:49:17;8.30;;;2.75;;
51270;SDS011;37744;50.960;4.136;2022-11-09T17:52:43;8.85;;;2.03;;
51270;SDS011;37744;50.960;4.136;2022-11-09T17:56:07;8.13;;;2.10;;
51270;SDS011;37744;50.960;4.136;2022-11-09T17:59:32;5.07;;;1.63;;
51270;SDS011;37744;50.960;4.136;2022-11-09T18:02:55;5.90;;;1.70;;
51270;SDS011;37744;50.960;4.136;2022-11-09T18:06:20;8.50;;;2.10;;
51270;SDS011;37744;50.960;4.136;2022-11-09T18:09:44;10.23;;;2.25;;
51270;SDS011;37744;50.960;4.136;2022-11-09T18:13:09;7.18;;;2.15;;
51270;SDS011;37744;50.960;4.136;2022-11-09T18:16:35;6.13;;;2.00;;
51270;SDS011;37744;50.960;4.136;2022-11-09T18:19:59;8.85;;;2.63;;
51270;SDS011;37744;50.960;4.136;2022-11-09T18:23:22;6.40;;;1.70;;
51270;SDS011;37744;50.960;4.136;2022-11-09T18:26:46;8.07;;;2.27;;
51270;SDS011;37744;50.960;4.136;2022-11-09T18:33:36;10.43;;;2.58;;
51270;SDS011;37744;50.960;4.136;2022-11-09T18:37:01;8.65;;;2.10;;
51270;SDS011;37744;50.960;4.136;2022-11-09T18:40:25;6.45;;;2.20;;
51270;SDS011;37744;50.960;4.136;2022-11-09T18:43:50;11.45;;;2.15;;
51270;SDS011;37744;50.960;4.136;2022-11-09T18:47:14;10.25;;;2.30;;
51270;SDS011;37744;50.960;4.136;2022-11-09T18:50:38;8.95;;;2.38;;
51270;SDS011;37744;50.960;4.136;2022-11-09T18:54:02;6.90;;;2.20;;
51270;SDS011;37744;50.960;4.136;2022-11-09T18:57:26;9.25;;;2.40;;
51270;SDS011;37744;50.960;4.136;2022-11-09T19:00:55;14.57;;;2.50;;
51270;SDS011;37744;50.960;4.136;2022-11-09T19:04:19;8.85;;;2.20;;
51270;SDS011;37744;50.960;4.136;2022-11-09T19:07:43;11.30;;;2.47;;
51270;SDS011;37744;50.960;4.136;2022-11-09T19:11:26;10.88;;;2.20;;
51270;SDS011;37744;50.960;4.136;2022-11-09T19:14:50;10.55;;;2.55;;
51270;SDS011;37744;50.960;4.136;2022-11-09T19:18:14;9.10;;;2.57;;
51270;SDS011;37744;50.960;4.136;2022-11-09T19:25:03;12.68;;;2.38;;
51270;SDS011;37744;50.960;4.136;2022-11-09T19:28:27;9.95;;;1.98;;
51270;SDS011;37744;50.960;4.136;2022-11-09T19:31:51;7.10;;;2.42;;
51270;SDS011;37744;50.960;4.136;2022-11-09T19:35:15;14.43;;;2.50;;
51270;SDS011;37744;50.960;4.136;2022-11-09T19:42:04;11.25;;;2.90;;
51270;SDS011;37744;50.960;4.136;2022-11-09T19:45:28;4.47;;;1.83;;
51270;SDS011;37744;50.960;4.136;2022-11-09T19:48:55;8.60;;;2.30;;
51270;SDS011;37744;50.960;4.136;2022-11-09T19:52:19;5.47;;;2.13;;
51270;SDS011;37744;50.960;4.136;2022-11-09T19:55:43;8.93;;;2.20;;
51270;SDS011;37744;50.960;4.136;2022-11-09T19:59:09;11.00;;;2.55;;
51270;SDS011;37744;50.960;4.136;2022-11-09T20:02:35;8.18;;;2.05;;
51270;SDS011;37744;50.960;4.136;2022-11-09T20:05:59;11.30;;;2.53;;
51270;SDS011;37744;50.960;4.136;2022-11-09T20:09:23;13.48;;;2.22;;
51270;SDS011;37744;50.960;4.136;2022-11-09T20:12:48;7.63;;;2.40;;
51270;SDS011;37744;50.960;4.136;2022-11-09T20:16:12;10.53;;;2.20;;
51270;SDS011;37744;50.960;4.136;2022-11-09T20:19:35;7.03;;;2.70;;
51270;SDS011;37744;50.960;4.136;2022-11-09T20:22:59;8.30;;;2.33;;
51270;SDS011;37744;50.960;4.136;2022-11-09T20:26:23;10.38;;;2.20;;
51270;SDS011;37744;50.960;4.136;2022-11-09T20:29:47;7.97;;;2.53;;
51270;SDS011;37744;50.960;4.136;2022-11-09T20:33:11;9.53;;;2.57;;
51270;SDS011;37744;50.960;4.136;2022-11-09T20:36:35;12.32;;;3.15;;
51270;SDS011;37744;50.960;4.136;2022-11-09T20:40:02;8.40;;;2.53;;
51270;SDS011;37744;50.960;4.136;2022-11-09T20:43:28;11.95;;;2.90;;
51270;SDS011;37744;50.960;4.136;2022-11-09T20:46:52;9.95;;;2.60;;
51270;SDS011;37744;50.960;4.136;2022-11-09T20:50:16;13.83;;;2.83;;
51270;SDS011;37744;50.960;4.136;2022-11-09T20:53:42;11.70;;;3.00;;
51270;SDS011;37744;50.960;4.136;2022-11-09T20:57:06;9.18;;;2.80;;
51270;SDS011;37744;50.960;4.136;2022-11-09T21:00:30;12.43;;;2.92;;
51270;SDS011;37744;50.960;4.136;2022-11-09T21:03:54;15.07;;;3.25;;
51270;SDS011;37744;50.960;4.136;2022-11-09T21:07:18;13.32;;;2.53;;
51270;SDS011;37744;50.960;4.136;2022-11-09T21:10:42;6.43;;;2.92;;
51270;SDS011;37744;50.960;4.136;2022-11-09T21:14:24;9.50;;;2.75;;
51270;SDS011;37744;50.960;4.136;2022-11-09T21:17:48;10.43;;;2.93;;
51270;SDS011;37744;50.960;4.136;2022-11-09T21:21:17;13.90;;;3.17;;
51270;SDS011;37744;50.960;4.136;2022-11-09T21:24:41;11.35;;;3.17;;
51270;SDS011;37744;50.960;4.136;2022-11-09T21:28:25;9.73;;;2.97;;
51270;SDS011;37744;50.960;4.136;2022-11-09T21:32:08;10.52;;;3.28;;
51270;SDS011;37744;50.960;4.136;2022-11-09T21:35:32;12.95;;;3.53;;
51270;SDS011;37744;50.960;4.136;2022-11-09T21:38:56;11.33;;;2.60;;
51270;SDS011;37744;50.960;4.136;2022-11-09T21:42:20;7.00;;;2.70;;
51270;SDS011;37744;50.960;4.136;2022-11-09T21:45:47;15.57;;;2.90;;
51270;SDS011;37744;50.960;4.136;2022-11-09T21:49:11;11.93;;;3.25;;
51270;SDS011;37744;50.960;4.136;2022-11-09T21:52:35;13.55;;;3.40;;
51270;SDS011;37744;50.960;4.136;2022-11-09T21:56:04;9.23;;;3.08;;
51270;SDS011;37744;50.960;4.136;2022-11-09T21:59:28;15.55;;;3.40;;
51270;SDS011;37744;50.960;4.136;2022-11-09T22:02:52;12.03;;;3.13;;
51270;SDS011;37744;50.960;4.136;2022-11-09T22:06:16;8.35;;;2.67;;
51270;SDS011;37744;50.960;4.136;2022-11-09T22:09:40;8.27;;;2.80;;
51270;SDS011;37744;50.960;4.136;2022-11-09T22:13:04;15.17;;;3.23;;
51270;SDS011;37744;50.960;4.136;2022-11-09T22:16:46;11.32;;;2.95;;
51270;SDS011;37744;50.960;4.136;2022-11-09T22:20:11;13.27;;;3.90;;
51270;SDS011;37744;50.960;4.136;2022-11-09T22:23:35;10.57;;;3.03;;
51270;SDS011;37744;50.960;4.136;2022-11-09T22:26:59;15.50;;;3.33;;
51270;SDS011;37744;50.960;4.136;2022-11-09T22:30:23;12.20;;;3.30;;
51270;SDS011;37744;50.960;4.136;2022-11-09T22:33:47;15.30;;;3.35;;
51270;SDS011;37744;50.960;4.136;2022-11-09T22:37:11;11.80;;;3.35;;
51270;SDS011;37744;50.960;4.136;2022-11-09T22:40:35;11.23;;;3.35;;
51270;SDS011;37744;50.960;4.136;2022-11-09T22:43:59;20.33;;;3.67;;
51270;SDS011;37744;50.960;4.136;2022-11-09T22:47:23;11.37;;;3.40;;
51270;SDS011;37744;50.960;4.136;2022-11-09T22:50:47;11.57;;;3.67;;
51270;SDS011;37744;50.960;4.136;2022-11-09T22:54:11;11.65;;;3.35;;
51270;SDS011;37744;50.960;4.136;2022-11-09T22:57:35;12.60;;;3.50;;
51270;SDS011;37744;50.960;4.136;2022-11-09T23:01:06;14.63;;;3.60;;
51270;SDS011;37744;50.960;4.136;2022-11-09T23:04:30;13.20;;;3.58;;
51270;SDS011;37744;50.960;4.136;2022-11-09T23:07:54;11.65;;;3.38;;
51270;SDS011;37744;50.960;4.136;2022-11-09T23:11:18;12.68;;;3.40;;